sensor_id;sensor_type;location;lat;lon;timestamp;temperature;humidity
37984;DHT22;64625;50.882;4.376;2023-04-28T00:02:16;12.20;99.90
37984;DHT22;64625;50.882;4.376;2023-04-28T00:04:42;12.10;99.90
37984;DHT22;64625;50.882;4.376;2023-04-28T00:07:08;12.00;99.90
37984;DHT22;64625;50.882;4.376;2023-04-28T00:09:34;12.00;99.90
37984;DHT22;64625;50.882;4.376;2023-04-28T00:12:00;11.90;99.90
37984;DHT22;64625;50.882;4.376;2023-04-28T00:14:27;11.90;99.90
37984;DHT22;64625;50.882;4.376;2023-04-28T00:16:52;11.80;99.90
37984;DHT22;64625;50.882;4.376;2023-04-28T00:19:21;11.80;99.90
37984;DHT22;64625;50.882;4.376;2023-04-28T00:21:47;11.70;99.90
37984;DHT22;64625;50.882;4.376;2023-04-28T00:24:12;11.60;99.90
37984;DHT22;64625;50.882;4.376;2023-04-28T00:26:38;11.50;99.90
37984;DHT22;64625;50.882;4.376;2023-04-28T00:29:04;11.40;99.90
37984;DHT22;64625;50.882;4.376;2023-04-28T00:31:30;11.40;99.90
37984;DHT22;64625;50.882;4.376;2023-04-28T00:33:56;11.40;99.90
37984;DHT22;64625;50.882;4.376;2023-04-28T00:36:25;11.40;99.90
37984;DHT22;64625;50.882;4.376;2023-04-28T00:38:51;11.30;99.90
37984;DHT22;64625;50.882;4.376;2023-04-28T00:41:16;11.20;99.90
37984;DHT22;64625;50.882;4.376;2023-04-28T00:43:44;11.10;99.90
37984;DHT22;64625;50.882;4.376;2023-04-28T00:46:23;11.10;99.90
37984;DHT22;64625;50.882;4.376;2023-04-28T00:48:50;11.00;99.90
37984;DHT22;64625;50.882;4.376;2023-04-28T00:51:16;11.00;99.90
37984;DHT22;64625;50.882;4.376;2023-04-28T00:53:43;10.90;99.90
37984;DHT22;64625;50.882;4.376;2023-04-28T00:56:12;10.90;99.90
37984;DHT22;64625;50.882;4.376;2023-04-28T00:58:37;10.90;99.90
37984;DHT22;64625;50.882;4.376;2023-04-28T01:01:04;10.90;99.90
37984;DHT22;64625;50.882;4.376;2023-04-28T01:03:33;10.90;99.90
37984;DHT22;64625;50.882;4.376;2023-04-28T01:05:59;10.90;99.90
37984;DHT22;64625;50.882;4.376;2023-04-28T01:08:32;10.90;99.90
37984;DHT22;64625;50.882;4.376;2023-04-28T01:10:58;10.90;99.90
37984;DHT22;64625;50.882;4.376;2023-04-28T01:13:24;10.80;99.90
37984;DHT22;64625;50.882;4.376;2023-04-28T01:15:50;10.80;99.90
37984;DHT22;64625;50.882;4.376;2023-04-28T01:18:16;10.80;99.90
37984;DHT22;64625;50.882;4.376;2023-04-28T01:20:42;10.80;99.90
37984;DHT22;64625;50.882;4.376;2023-04-28T01:23:15;10.70;99.90
37984;DHT22;64625;50.882;4.376;2023-04-28T01:25:42;10.70;99.90
37984;DHT22;64625;50.882;4.376;2023-04-28T01:28:08;10.70;99.90
37984;DHT22;64625;50.882;4.376;2023-04-28T01:30:34;10.70;99.90
37984;DHT22;64625;50.882;4.376;2023-04-28T01:33:01;10.70;99.90
37984;DHT22;64625;50.882;4.376;2023-04-28T01:35:27;10.70;99.90
37984;DHT22;64625;50.882;4.376;2023-04-28T01:37:53;10.70;99.90
37984;DHT22;64625;50.882;4.376;2023-04-28T01:40:19;10.80;99.90
37984;DHT22;64625;50.882;4.376;2023-04-28T01:42:45;10.80;99.90
37984;DHT22;64625;50.882;4.376;2023-04-28T01:45:11;10.80;99.90
37984;DHT22;64625;50.882;4.376;2023-04-28T01:47:37;10.80;99.90
37984;DHT22;64625;50.882;4.376;2023-04-28T01:50:03;10.70;99.90
37984;DHT22;64625;50.882;4.376;2023-04-28T01:52:29;10.70;99.90
37984;DHT22;64625;50.882;4.376;2023-04-28T01:54:55;10.70;99.90
37984;DHT22;64625;50.882;4.376;2023-04-28T01:57:21;10.70;99.90
37984;DHT22;64625;50.882;4.376;2023-04-28T01:59:47;10.70;99.90
37984;DHT22;64625;50.882;4.376;2023-04-28T02:02:13;10.70;99.90
37984;DHT22;64625;50.882;4.376;2023-04-28T02:04:39;10.70;99.90
37984;DHT22;64625;50.882;4.376;2023-04-28T02:07:05;10.70;99.90
37984;DHT22;64625;50.882;4.376;2023-04-28T02:09:32;10.70;99.90
37984;DHT22;64625;50.882;4.376;2023-04-28T02:11:58;10.70;99.90
37984;DHT22;64625;50.882;4.376;2023-04-28T02:14:30;10.70;99.90
37984;DHT22;64625;50.882;4.376;2023-04-28T02:16:59;10.70;99.90
37984;DHT22;64625;50.882;4.376;2023-04-28T02:19:25;10.70;99.90
37984;DHT22;64625;50.882;4.376;2023-04-28T02:21:51;10.70;99.90
37984;DHT22;64625;50.882;4.376;2023-04-28T02:24:16;10.70;99.90
37984;DHT22;64625;50.882;4.376;2023-04-28T02:26:42;10.60;99.90
37984;DHT22;64625;50.882;4.376;2023-04-28T02:29:08;10.60;99.90
37984;DHT22;64625;50.882;4.376;2023-04-28T02:31:34;10.60;99.90
37984;DHT22;64625;50.882;4.376;2023-04-28T02:33:59;10.50;99.90
37984;DHT22;64625;50.882;4.376;2023-04-28T02:36:25;10.50;99.90
37984;DHT22;64625;50.882;4.376;2023-04-28T02:38:52;10.50;99.90
37984;DHT22;64625;50.882;4.376;2023-04-28T02:41:18;10.50;99.90
37984;DHT22;64625;50.882;4.376;2023-04-28T02:43:44;10.40;99.90
37984;DHT22;64625;50.882;4.376;2023-04-28T02:46:09;10.40;99.90
37984;DHT22;64625;50.882;4.376;2023-04-28T02:48:36;10.40;99.90
37984;DHT22;64625;50.882;4.376;2023-04-28T02:51:02;10.30;99.90
37984;DHT22;64625;50.882;4.376;2023-04-28T02:53:28;10.40;99.90
37984;DHT22;64625;50.882;4.376;2023-04-28T02:55:53;10.40;99.90
37984;DHT22;64625;50.882;4.376;2023-04-28T02:58:19;10.40;99.90
37984;DHT22;64625;50.882;4.376;2023-04-28T03:00:47;10.30;99.90
37984;DHT22;64625;50.882;4.376;2023-04-28T03:03:13;10.30;99.90
37984;DHT22;64625;50.882;4.376;2023-04-28T03:05:38;10.30;99.90
37984;DHT22;64625;50.882;4.376;2023-04-28T03:08:04;10.40;99.90
37984;DHT22;64625;50.882;4.376;2023-04-28T03:10:30;10.40;99.90
37984;DHT22;64625;50.882;4.376;2023-04-28T03:12:56;10.40;99.90
37984;DHT22;64625;50.882;4.376;2023-04-28T03:15:22;10.40;99.90
37984;DHT22;64625;50.882;4.376;2023-04-28T03:17:48;10.40;99.90
37984;DHT22;64625;50.882;4.376;2023-04-28T03:20:13;10.40;99.90
37984;DHT22;64625;50.882;4.376;2023-04-28T03:22:39;10.40;99.90
37984;DHT22;64625;50.882;4.376;2023-04-28T03:25:05;10.40;99.90
37984;DHT22;64625;50.882;4.376;2023-04-28T03:27:32;10.40;99.90
37984;DHT22;64625;50.882;4.376;2023-04-28T03:29:57;10.40;99.90
37984;DHT22;64625;50.882;4.376;2023-04-28T03:32:26;10.40;99.90
37984;DHT22;64625;50.882;4.376;2023-04-28T03:34:52;10.50;99.90
37984;DHT22;64625;50.882;4.376;2023-04-28T03:37:18;10.40;99.90
37984;DHT22;64625;50.882;4.376;2023-04-28T03:39:43;10.40;99.90
37984;DHT22;64625;50.882;4.376;2023-04-28T03:42:09;10.50;99.90
37984;DHT22;64625;50.882;4.376;2023-04-28T03:44:35;10.50;99.90
37984;DHT22;64625;50.882;4.376;2023-04-28T03:47:01;10.50;99.90
37984;DHT22;64625;50.882;4.376;2023-04-28T03:49:26;10.50;99.90
37984;DHT22;64625;50.882;4.376;2023-04-28T03:51:52;10.40;99.90
37984;DHT22;64625;50.882;4.376;2023-04-28T03:54:18;10.50;99.90
37984;DHT22;64625;50.882;4.376;2023-04-28T03:56:44;10.50;99.90
37984;DHT22;64625;50.882;4.376;2023-04-28T03:59:10;10.40;99.90
37984;DHT22;64625;50.882;4.376;2023-04-28T04:01:37;10.40;99.90
37984;DHT22;64625;50.882;4.376;2023-04-28T04:04:03;10.50;99.90
37984;DHT22;64625;50.882;4.376;2023-04-28T04:06:29;10.50;99.90
37984;DHT22;64625;50.882;4.376;2023-04-28T04:08:56;10.50;99.90
37984;DHT22;64625;50.882;4.376;2023-04-28T04:11:22;10.40;99.90
37984;DHT22;64625;50.882;4.376;2023-04-28T04:13:47;10.50;99.90
37984;DHT22;64625;50.882;4.376;2023-04-28T04:16:13;10.50;99.90
37984;DHT22;64625;50.882;4.376;2023-04-28T04:18:42;10.50;99.90
37984;DHT22;64625;50.882;4.376;2023-04-28T04:21:08;10.60;99.90
37984;DHT22;64625;50.882;4.376;2023-04-28T04:23:34;10.60;99.90
37984;DHT22;64625;50.882;4.376;2023-04-28T04:25:59;10.60;99.90
37984;DHT22;64625;50.882;4.376;2023-04-28T04:28:25;10.60;99.90
37984;DHT22;64625;50.882;4.376;2023-04-28T04:30:51;10.60;99.90
37984;DHT22;64625;50.882;4.376;2023-04-28T04:33:17;10.60;99.90
37984;DHT22;64625;50.882;4.376;2023-04-28T04:35:43;10.60;99.90
37984;DHT22;64625;50.882;4.376;2023-04-28T04:38:09;10.60;99.90
37984;DHT22;64625;50.882;4.376;2023-04-28T04:40:35;10.60;99.90
37984;DHT22;64625;50.882;4.376;2023-04-28T04:43:01;10.60;99.90
37984;DHT22;64625;50.882;4.376;2023-04-28T04:45:27;10.60;99.90
37984;DHT22;64625;50.882;4.376;2023-04-28T04:47:53;10.60;99.90
37984;DHT22;64625;50.882;4.376;2023-04-28T04:50:18;10.60;99.90
37984;DHT22;64625;50.882;4.376;2023-04-28T04:52:44;10.70;99.90
37984;DHT22;64625;50.882;4.376;2023-04-28T04:55:10;10.70;99.90
37984;DHT22;64625;50.882;4.376;2023-04-28T04:57:36;10.70;99.90
37984;DHT22;64625;50.882;4.376;2023-04-28T05:00:03;10.80;99.90
37984;DHT22;64625;50.882;4.376;2023-04-28T05:02:30;10.80;99.90
37984;DHT22;64625;50.882;4.376;2023-04-28T05:04:56;10.80;99.90
37984;DHT22;64625;50.882;4.376;2023-04-28T05:07:22;10.80;99.90
37984;DHT22;64625;50.882;4.376;2023-04-28T05:09:47;10.80;99.90
37984;DHT22;64625;50.882;4.376;2023-04-28T05:12:13;10.80;99.90
37984;DHT22;64625;50.882;4.376;2023-04-28T05:14:39;10.90;99.90
37984;DHT22;64625;50.882;4.376;2023-04-28T05:17:14;10.90;99.90
37984;DHT22;64625;50.882;4.376;2023-04-28T05:19:44;10.90;99.90
37984;DHT22;64625;50.882;4.376;2023-04-28T05:22:15;10.90;99.90
37984;DHT22;64625;50.882;4.376;2023-04-28T05:25:09;10.90;99.90
37984;DHT22;64625;50.882;4.376;2023-04-28T05:27:38;11.00;99.90
37984;DHT22;64625;50.882;4.376;2023-04-28T05:30:07;11.00;99.90
37984;DHT22;64625;50.882;4.376;2023-04-28T05:32:36;11.00;99.90
37984;DHT22;64625;50.882;4.376;2023-04-28T05:35:02;11.00;99.90
37984;DHT22;64625;50.882;4.376;2023-04-28T05:37:28;11.00;99.90
37984;DHT22;64625;50.882;4.376;2023-04-28T05:39:54;11.00;99.90
37984;DHT22;64625;50.882;4.376;2023-04-28T05:42:20;11.10;99.90
37984;DHT22;64625;50.882;4.376;2023-04-28T05:44:46;11.10;99.90
37984;DHT22;64625;50.882;4.376;2023-04-28T05:47:11;11.10;99.90
37984;DHT22;64625;50.882;4.376;2023-04-28T05:49:37;11.10;99.90
37984;DHT22;64625;50.882;4.376;2023-04-28T05:52:03;11.10;99.90
37984;DHT22;64625;50.882;4.376;2023-04-28T05:54:29;11.10;99.90
37984;DHT22;64625;50.882;4.376;2023-04-28T05:56:55;11.10;99.90
37984;DHT22;64625;50.882;4.376;2023-04-28T05:59:22;11.10;99.90
37984;DHT22;64625;50.882;4.376;2023-04-28T06:01:48;11.20;99.90
37984;DHT22;64625;50.882;4.376;2023-04-28T06:04:15;11.20;99.90
37984;DHT22;64625;50.882;4.376;2023-04-28T06:06:42;11.20;99.90
37984;DHT22;64625;50.882;4.376;2023-04-28T06:09:08;11.20;99.90
37984;DHT22;64625;50.882;4.376;2023-04-28T06:11:34;11.30;99.90
37984;DHT22;64625;50.882;4.376;2023-04-28T06:14:00;11.30;99.90
37984;DHT22;64625;50.882;4.376;2023-04-28T06:16:27;11.40;99.90
37984;DHT22;64625;50.882;4.376;2023-04-28T06:18:54;11.40;99.90
37984;DHT22;64625;50.882;4.376;2023-04-28T06:21:20;11.40;99.90
37984;DHT22;64625;50.882;4.376;2023-04-28T06:23:46;11.50;99.90
37984;DHT22;64625;50.882;4.376;2023-04-28T06:26:12;11.50;99.90
37984;DHT22;64625;50.882;4.376;2023-04-28T06:28:38;11.60;99.90
37984;DHT22;64625;50.882;4.376;2023-04-28T06:31:04;11.60;99.90
37984;DHT22;64625;50.882;4.376;2023-04-28T06:33:31;11.70;99.90
37984;DHT22;64625;50.882;4.376;2023-04-28T06:35:56;11.70;99.90
37984;DHT22;64625;50.882;4.376;2023-04-28T06:38:22;11.80;99.90
37984;DHT22;64625;50.882;4.376;2023-04-28T06:40:48;11.90;99.90
37984;DHT22;64625;50.882;4.376;2023-04-28T06:43:14;12.00;99.90
37984;DHT22;64625;50.882;4.376;2023-04-28T06:45:40;12.20;99.90
37984;DHT22;64625;50.882;4.376;2023-04-28T06:48:06;12.30;99.90
37984;DHT22;64625;50.882;4.376;2023-04-28T06:50:37;12.50;99.90
37984;DHT22;64625;50.882;4.376;2023-04-28T06:53:03;12.60;99.90
37984;DHT22;64625;50.882;4.376;2023-04-28T06:55:29;12.70;99.90
37984;DHT22;64625;50.882;4.376;2023-04-28T06:57:55;12.80;99.90
37984;DHT22;64625;50.882;4.376;2023-04-28T07:00:23;13.00;99.90
37984;DHT22;64625;50.882;4.376;2023-04-28T07:02:48;13.10;99.90
37984;DHT22;64625;50.882;4.376;2023-04-28T07:05:14;13.20;99.90
37984;DHT22;64625;50.882;4.376;2023-04-28T07:07:40;13.30;99.90
37984;DHT22;64625;50.882;4.376;2023-04-28T07:10:07;13.30;99.90
37984;DHT22;64625;50.882;4.376;2023-04-28T07:12:33;13.40;99.90
37984;DHT22;64625;50.882;4.376;2023-04-28T07:14:59;13.50;99.90
37984;DHT22;64625;50.882;4.376;2023-04-28T07:17:24;13.60;99.90
37984;DHT22;64625;50.882;4.376;2023-04-28T07:19:50;13.60;99.90
37984;DHT22;64625;50.882;4.376;2023-04-28T07:22:16;13.70;99.90
37984;DHT22;64625;50.882;4.376;2023-04-28T07:24:43;13.70;99.90
37984;DHT22;64625;50.882;4.376;2023-04-28T07:27:09;13.80;99.90
37984;DHT22;64625;50.882;4.376;2023-04-28T07:29:34;13.80;99.90
37984;DHT22;64625;50.882;4.376;2023-04-28T07:32:01;13.90;99.90
37984;DHT22;64625;50.882;4.376;2023-04-28T07:34:29;13.90;99.90
37984;DHT22;64625;50.882;4.376;2023-04-28T07:36:56;13.90;99.90
37984;DHT22;64625;50.882;4.376;2023-04-28T07:39:22;13.90;99.90
37984;DHT22;64625;50.882;4.376;2023-04-28T07:41:49;14.00;99.90
37984;DHT22;64625;50.882;4.376;2023-04-28T07:44:14;14.10;99.90
37984;DHT22;64625;50.882;4.376;2023-04-28T07:46:40;14.10;99.90
37984;DHT22;64625;50.882;4.376;2023-04-28T07:49:06;14.20;99.90
37984;DHT22;64625;50.882;4.376;2023-04-28T07:51:33;14.30;99.90
37984;DHT22;64625;50.882;4.376;2023-04-28T07:53:59;14.40;99.90
37984;DHT22;64625;50.882;4.376;2023-04-28T07:56:25;14.50;99.90
37984;DHT22;64625;50.882;4.376;2023-04-28T07:58:51;14.60;99.90
37984;DHT22;64625;50.882;4.376;2023-04-28T08:01:17;14.70;99.90
37984;DHT22;64625;50.882;4.376;2023-04-28T08:03:43;14.70;99.90
37984;DHT22;64625;50.882;4.376;2023-04-28T08:06:09;14.80;99.90
37984;DHT22;64625;50.882;4.376;2023-04-28T08:08:35;14.90;99.90
37984;DHT22;64625;50.882;4.376;2023-04-28T08:11:01;15.00;99.90
37984;DHT22;64625;50.882;4.376;2023-04-28T08:13:27;15.00;99.90
37984;DHT22;64625;50.882;4.376;2023-04-28T08:15:56;15.10;99.90
37984;DHT22;64625;50.882;4.376;2023-04-28T08:18:23;15.10;99.90
37984;DHT22;64625;50.882;4.376;2023-04-28T08:20:49;15.10;99.90
37984;DHT22;64625;50.882;4.376;2023-04-28T08:23:15;15.20;99.90
37984;DHT22;64625;50.882;4.376;2023-04-28T08:25:41;15.20;99.90
37984;DHT22;64625;50.882;4.376;2023-04-28T08:28:07;15.20;99.90
37984;DHT22;64625;50.882;4.376;2023-04-28T08:30:34;15.20;99.90
37984;DHT22;64625;50.882;4.376;2023-04-28T08:32:59;15.30;99.90
37984;DHT22;64625;50.882;4.376;2023-04-28T08:35:25;15.30;99.90
37984;DHT22;64625;50.882;4.376;2023-04-28T08:37:52;15.30;99.90
37984;DHT22;64625;50.882;4.376;2023-04-28T08:40:18;15.30;99.90
37984;DHT22;64625;50.882;4.376;2023-04-28T08:42:44;15.40;99.90
37984;DHT22;64625;50.882;4.376;2023-04-28T08:45:13;15.40;99.90
37984;DHT22;64625;50.882;4.376;2023-04-28T08:47:39;15.40;99.90
37984;DHT22;64625;50.882;4.376;2023-04-28T08:50:15;15.40;99.90
37984;DHT22;64625;50.882;4.376;2023-04-28T08:52:42;15.40;99.90
37984;DHT22;64625;50.882;4.376;2023-04-28T08:55:10;15.50;99.90
37984;DHT22;64625;50.882;4.376;2023-04-28T08:57:50;15.50;99.90
37984;DHT22;64625;50.882;4.376;2023-04-28T09:00:19;15.50;99.90
37984;DHT22;64625;50.882;4.376;2023-04-28T09:02:45;15.50;99.90
37984;DHT22;64625;50.882;4.376;2023-04-28T09:05:12;15.60;99.90
37984;DHT22;64625;50.882;4.376;2023-04-28T09:07:39;15.70;99.90
37984;DHT22;64625;50.882;4.376;2023-04-28T09:10:29;15.80;99.90
37984;DHT22;64625;50.882;4.376;2023-04-28T09:12:54;15.80;99.90
37984;DHT22;64625;50.882;4.376;2023-04-28T09:15:29;15.90;99.90
37984;DHT22;64625;50.882;4.376;2023-04-28T09:17:56;16.00;99.90
37984;DHT22;64625;50.882;4.376;2023-04-28T09:20:23;16.10;99.90
37984;DHT22;64625;50.882;4.376;2023-04-28T09:22:50;16.10;99.90
37984;DHT22;64625;50.882;4.376;2023-04-28T09:25:17;16.20;99.90
37984;DHT22;64625;50.882;4.376;2023-04-28T09:27:44;16.30;99.90
37984;DHT22;64625;50.882;4.376;2023-04-28T09:30:10;16.30;99.90
37984;DHT22;64625;50.882;4.376;2023-04-28T09:32:36;16.40;99.90
37984;DHT22;64625;50.882;4.376;2023-04-28T09:35:02;16.50;99.90
37984;DHT22;64625;50.882;4.376;2023-04-28T09:37:30;16.60;99.90
37984;DHT22;64625;50.882;4.376;2023-04-28T09:40:01;16.60;99.90
37984;DHT22;64625;50.882;4.376;2023-04-28T09:42:44;16.70;99.90
37984;DHT22;64625;50.882;4.376;2023-04-28T09:45:14;16.70;99.90
37984;DHT22;64625;50.882;4.376;2023-04-28T09:47:43;16.80;99.90
37984;DHT22;64625;50.882;4.376;2023-04-28T09:50:12;16.80;99.90
37984;DHT22;64625;50.882;4.376;2023-04-28T09:52:57;16.90;99.90
37984;DHT22;64625;50.882;4.376;2023-04-28T09:55:24;16.90;99.90
37984;DHT22;64625;50.882;4.376;2023-04-28T09:57:53;17.00;99.90
37984;DHT22;64625;50.882;4.376;2023-04-28T10:00:20;17.20;99.90
37984;DHT22;64625;50.882;4.376;2023-04-28T10:02:48;17.20;99.90
37984;DHT22;64625;50.882;4.376;2023-04-28T10:05:16;17.40;99.90
37984;DHT22;64625;50.882;4.376;2023-04-28T10:07:42;17.40;99.90
37984;DHT22;64625;50.882;4.376;2023-04-28T10:10:08;17.50;99.90
37984;DHT22;64625;50.882;4.376;2023-04-28T10:12:34;17.50;99.90
37984;DHT22;64625;50.882;4.376;2023-04-28T10:15:03;17.60;99.90
37984;DHT22;64625;50.882;4.376;2023-04-28T10:17:29;17.60;99.90
37984;DHT22;64625;50.882;4.376;2023-04-28T10:19:55;17.60;99.90
37984;DHT22;64625;50.882;4.376;2023-04-28T10:27:41;17.60;99.90
37984;DHT22;64625;50.882;4.376;2023-04-28T10:30:15;17.60;99.90
37984;DHT22;64625;50.882;4.376;2023-04-28T10:32:42;17.60;99.90
37984;DHT22;64625;50.882;4.376;2023-04-28T10:38:14;17.60;99.90
37984;DHT22;64625;50.882;4.376;2023-04-28T10:40:48;17.60;99.90
37984;DHT22;64625;50.882;4.376;2023-04-28T10:58:52;17.70;99.90
37984;DHT22;64625;50.882;4.376;2023-04-28T11:03:57;17.70;99.90
37984;DHT22;64625;50.882;4.376;2023-04-28T11:14:36;17.60;99.90
37984;DHT22;64625;50.882;4.376;2023-04-28T11:17:05;17.60;99.90
37984;DHT22;64625;50.882;4.376;2023-04-28T11:19:34;17.50;99.90
37984;DHT22;64625;50.882;4.376;2023-04-28T11:22:16;17.50;99.90
37984;DHT22;64625;50.882;4.376;2023-04-28T11:24:58;17.50;99.90
37984;DHT22;64625;50.882;4.376;2023-04-28T11:27:26;17.50;99.90
37984;DHT22;64625;50.882;4.376;2023-04-28T11:29:52;17.40;99.90
37984;DHT22;64625;50.882;4.376;2023-04-28T11:32:29;17.40;99.90
37984;DHT22;64625;50.882;4.376;2023-04-28T11:34:55;17.40;99.90
37984;DHT22;64625;50.882;4.376;2023-04-28T11:37:21;17.40;99.90
37984;DHT22;64625;50.882;4.376;2023-04-28T11:39:48;17.30;99.90
37984;DHT22;64625;50.882;4.376;2023-04-28T11:42:14;17.30;99.90
37984;DHT22;64625;50.882;4.376;2023-04-28T11:44:51;17.30;99.90
37984;DHT22;64625;50.882;4.376;2023-04-28T11:47:33;17.40;99.90
37984;DHT22;64625;50.882;4.376;2023-04-28T11:49:59;17.40;99.90
37984;DHT22;64625;50.882;4.376;2023-04-28T11:52:25;17.40;99.90
37984;DHT22;64625;50.882;4.376;2023-04-28T11:54:56;17.30;99.90
37984;DHT22;64625;50.882;4.376;2023-04-28T11:57:23;17.20;99.90
37984;DHT22;64625;50.882;4.376;2023-04-28T11:59:51;17.10;99.90
37984;DHT22;64625;50.882;4.376;2023-04-28T12:02:27;17.10;99.90
37984;DHT22;64625;50.882;4.376;2023-04-28T12:05:03;17.10;99.90
37984;DHT22;64625;50.882;4.376;2023-04-28T12:07:45;17.10;99.90
37984;DHT22;64625;50.882;4.376;2023-04-28T12:10:15;17.10;99.90
37984;DHT22;64625;50.882;4.376;2023-04-28T12:12:41;17.10;99.90
37984;DHT22;64625;50.882;4.376;2023-04-28T12:15:07;17.10;99.90
37984;DHT22;64625;50.882;4.376;2023-04-28T12:17:38;17.10;99.90
37984;DHT22;64625;50.882;4.376;2023-04-28T12:20:32;17.20;99.90
37984;DHT22;64625;50.882;4.376;2023-04-28T12:22:54;17.20;99.90
37984;DHT22;64625;50.882;4.376;2023-04-28T12:25:21;17.20;99.90
37984;DHT22;64625;50.882;4.376;2023-04-28T12:28:06;17.10;99.90
37984;DHT22;64625;50.882;4.376;2023-04-28T12:30:36;17.10;99.90
37984;DHT22;64625;50.882;4.376;2023-04-28T12:33:24;17.10;99.90
37984;DHT22;64625;50.882;4.376;2023-04-28T12:35:50;17.10;99.90
37984;DHT22;64625;50.882;4.376;2023-04-28T12:38:18;17.10;99.90
37984;DHT22;64625;50.882;4.376;2023-04-28T12:40:44;17.10;99.90
37984;DHT22;64625;50.882;4.376;2023-04-28T12:43:10;17.10;99.90
37984;DHT22;64625;50.882;4.376;2023-04-28T12:45:36;17.20;99.90
37984;DHT22;64625;50.882;4.376;2023-04-28T12:48:02;17.20;99.90
37984;DHT22;64625;50.882;4.376;2023-04-28T12:50:29;17.10;99.90
37984;DHT22;64625;50.882;4.376;2023-04-28T12:52:57;17.10;99.90
37984;DHT22;64625;50.882;4.376;2023-04-28T12:55:25;17.10;99.90
37984;DHT22;64625;50.882;4.376;2023-04-28T12:57:51;17.10;99.90
37984;DHT22;64625;50.882;4.376;2023-04-28T13:00:17;17.10;99.90
37984;DHT22;64625;50.882;4.376;2023-04-28T13:02:50;17.10;99.90
37984;DHT22;64625;50.882;4.376;2023-04-28T13:05:15;17.10;99.90
37984;DHT22;64625;50.882;4.376;2023-04-28T13:07:42;17.10;99.90
37984;DHT22;64625;50.882;4.376;2023-04-28T13:10:08;17.10;99.90
37984;DHT22;64625;50.882;4.376;2023-04-28T13:12:35;17.10;99.90
37984;DHT22;64625;50.882;4.376;2023-04-28T13:15:01;17.10;99.90
37984;DHT22;64625;50.882;4.376;2023-04-28T13:17:28;17.10;99.90
37984;DHT22;64625;50.882;4.376;2023-04-28T13:19:54;17.20;99.90
37984;DHT22;64625;50.882;4.376;2023-04-28T13:22:20;17.20;99.90
37984;DHT22;64625;50.882;4.376;2023-04-28T13:24:47;17.10;99.90
37984;DHT22;64625;50.882;4.376;2023-04-28T13:27:13;17.10;99.90
37984;DHT22;64625;50.882;4.376;2023-04-28T13:29:39;17.10;99.90
37984;DHT22;64625;50.882;4.376;2023-04-28T13:32:06;17.10;99.90
37984;DHT22;64625;50.882;4.376;2023-04-28T13:34:31;17.10;99.90
37984;DHT22;64625;50.882;4.376;2023-04-28T13:36:58;17.10;99.90
37984;DHT22;64625;50.882;4.376;2023-04-28T13:39:23;17.10;99.90
37984;DHT22;64625;50.882;4.376;2023-04-28T13:41:49;17.10;99.90
37984;DHT22;64625;50.882;4.376;2023-04-28T13:44:16;17.00;99.90
37984;DHT22;64625;50.882;4.376;2023-04-28T13:46:42;17.00;99.90
37984;DHT22;64625;50.882;4.376;2023-04-28T13:49:11;17.00;99.90
37984;DHT22;64625;50.882;4.376;2023-04-28T13:51:37;17.00;99.90
37984;DHT22;64625;50.882;4.376;2023-04-28T13:54:04;17.00;99.90
37984;DHT22;64625;50.882;4.376;2023-04-28T13:56:34;17.00;99.90
37984;DHT22;64625;50.882;4.376;2023-04-28T13:59:01;17.00;99.90
37984;DHT22;64625;50.882;4.376;2023-04-28T14:01:27;16.90;99.90
37984;DHT22;64625;50.882;4.376;2023-04-28T14:03:53;16.90;99.90
37984;DHT22;64625;50.882;4.376;2023-04-28T14:06:19;16.90;99.90
37984;DHT22;64625;50.882;4.376;2023-04-28T14:08:45;16.90;99.90
37984;DHT22;64625;50.882;4.376;2023-04-28T14:11:11;16.90;99.90
37984;DHT22;64625;50.882;4.376;2023-04-28T14:13:37;16.90;99.90
37984;DHT22;64625;50.882;4.376;2023-04-28T14:16:03;16.90;99.90
37984;DHT22;64625;50.882;4.376;2023-04-28T14:18:29;16.90;99.90
37984;DHT22;64625;50.882;4.376;2023-04-28T14:20:59;16.90;99.90
37984;DHT22;64625;50.882;4.376;2023-04-28T14:23:26;16.90;99.90
37984;DHT22;64625;50.882;4.376;2023-04-28T14:25:53;16.90;99.90
37984;DHT22;64625;50.882;4.376;2023-04-28T14:28:20;16.90;99.90
37984;DHT22;64625;50.882;4.376;2023-04-28T14:30:46;16.90;99.90
37984;DHT22;64625;50.882;4.376;2023-04-28T14:33:12;16.90;99.90
37984;DHT22;64625;50.882;4.376;2023-04-28T14:35:39;16.90;99.90
37984;DHT22;64625;50.882;4.376;2023-04-28T14:38:06;16.90;99.90
37984;DHT22;64625;50.882;4.376;2023-04-28T14:40:32;16.90;99.90
37984;DHT22;64625;50.882;4.376;2023-04-28T14:42:58;17.00;99.90
37984;DHT22;64625;50.882;4.376;2023-04-28T14:45:23;16.90;99.90
37984;DHT22;64625;50.882;4.376;2023-04-28T14:47:49;17.00;99.90
37984;DHT22;64625;50.882;4.376;2023-04-28T14:50:15;17.00;99.90
37984;DHT22;64625;50.882;4.376;2023-04-28T14:52:43;17.00;99.90
37984;DHT22;64625;50.882;4.376;2023-04-28T14:55:09;17.00;99.90
37984;DHT22;64625;50.882;4.376;2023-04-28T14:57:35;17.00;99.90
37984;DHT22;64625;50.882;4.376;2023-04-28T15:00:02;17.10;99.90
37984;DHT22;64625;50.882;4.376;2023-04-28T15:02:29;17.10;99.90
37984;DHT22;64625;50.882;4.376;2023-04-28T15:04:56;17.20;99.90
37984;DHT22;64625;50.882;4.376;2023-04-28T15:07:23;17.20;99.90
37984;DHT22;64625;50.882;4.376;2023-04-28T15:09:51;17.30;99.90
37984;DHT22;64625;50.882;4.376;2023-04-28T15:12:17;17.40;99.90
37984;DHT22;64625;50.882;4.376;2023-04-28T15:14:43;17.50;99.90
37984;DHT22;64625;50.882;4.376;2023-04-28T15:17:08;17.60;99.90
37984;DHT22;64625;50.882;4.376;2023-04-28T15:19:35;17.70;99.90
37984;DHT22;64625;50.882;4.376;2023-04-28T15:22:01;17.70;99.90
37984;DHT22;64625;50.882;4.376;2023-04-28T15:24:28;17.70;99.90
37984;DHT22;64625;50.882;4.376;2023-04-28T15:26:55;17.70;99.90
37984;DHT22;64625;50.882;4.376;2023-04-28T15:29:24;17.70;99.90
37984;DHT22;64625;50.882;4.376;2023-04-28T15:31:50;17.70;99.90
37984;DHT22;64625;50.882;4.376;2023-04-28T15:34:16;17.70;99.90
37984;DHT22;64625;50.882;4.376;2023-04-28T15:36:42;17.70;99.90
37984;DHT22;64625;50.882;4.376;2023-04-28T15:39:09;17.70;99.90
37984;DHT22;64625;50.882;4.376;2023-04-28T15:41:36;17.70;99.90
37984;DHT22;64625;50.882;4.376;2023-04-28T15:44:02;17.70;99.90
37984;DHT22;64625;50.882;4.376;2023-04-28T15:46:30;17.60;99.90
37984;DHT22;64625;50.882;4.376;2023-04-28T15:48:56;17.60;99.90
37984;DHT22;64625;50.882;4.376;2023-04-28T15:51:22;17.50;99.90
37984;DHT22;64625;50.882;4.376;2023-04-28T15:53:49;17.50;99.90
37984;DHT22;64625;50.882;4.376;2023-04-28T15:56:18;17.50;99.90
37984;DHT22;64625;50.882;4.376;2023-04-28T15:58:45;17.50;99.90
37984;DHT22;64625;50.882;4.376;2023-04-28T16:01:12;17.50;99.90
37984;DHT22;64625;50.882;4.376;2023-04-28T16:03:38;17.50;99.90
37984;DHT22;64625;50.882;4.376;2023-04-28T16:06:07;17.40;99.90